Time;durP1;ratioP1;P1;durP2;ratioP2;P2;SDS_P1;SDS_P2;PMS_P1;PMS_P2;Temp;Humidity;BMP_temperature;BMP_pressure;BME280_temperature;BME280_humidity;BME280_pressure;Samples;Min_cycle;Max_cycle;Signal;HPM_P1;HPM_P2
2022/08/06 00:02:23;;;;;;;7.57;4.77;;;;;;;28.17;47.16;99159.00;5072734;28;20199;-73
2022/08/06 00:04:50;;;;;;;7.70;5.17;;;;;;;28.14;47.24;99150.66;5071995;28;20187;-72
2022/08/06 00:07:17;;;;;;;7.80;4.63;;;;;;;28.15;47.09;99166.75;5071851;28;20796;-71
2022/08/06 00:09:44;;;;;;;9.77;4.80;;;;;;;28.17;47.16;99160.97;5072286;28;20191;-71
2022/08/06 00:12:12;;;;;;;7.87;4.70;;;;;;;28.21;47.51;99159.16;5072792;28;20191;-71
2022/08/06 00:14:39;;;;;;;5.10;4.80;;;;;;;28.25;47.22;99160.13;5072265;28;20728;-69
2022/08/06 00:17:06;;;;;;;6.23;4.33;;;;;;;28.27;47.18;99157.91;5071785;28;20191;-70
2022/08/06 00:19:33;;;;;;;8.47;5.00;;;;;;;28.29;47.21;99155.66;5072518;28;20188;-71
2022/08/06 00:22:00;;;;;;;7.23;5.00;;;;;;;28.33;47.33;99156.63;5071776;28;20200;-70
2022/08/06 00:24:26;;;;;;;5.00;4.47;;;;;;;28.40;46.67;99156.97;5072649;28;20200;-70
2022/08/06 00:26:53;;;;;;;5.07;4.53;;;;;;;28.43;46.99;99153.63;5072457;28;20576;-72
2022/08/06 00:29:21;;;;;;;7.97;4.33;;;;;;;28.45;46.66;99154.09;5072189;28;20261;-71
2022/08/06 00:31:48;;;;;;;5.10;4.70;;;;;;;28.44;46.83;99157.97;5072485;28;20203;-71
2022/08/06 00:34:14;;;;;;;4.87;4.20;;;;;;;28.46;46.57;99159.25;5071546;28;20724;-71
2022/08/06 00:36:41;;;;;;;6.57;4.47;;;;;;;28.50;46.32;99156.69;5071759;28;20745;-71
2022/08/06 00:39:09;;;;;;;4.70;4.40;;;;;;;28.50;46.75;99156.69;5072425;28;20219;-71
2022/08/06 00:41:36;;;;;;;5.40;4.80;;;;;;;28.44;47.01;99160.69;5072090;28;20196;-71
2022/08/06 00:44:02;;;;;;;5.20;4.80;;;;;;;28.42;46.29;99162.94;5072157;28;20249;-71
2022/08/06 00:46:31;;;;;;;5.20;4.80;;;;;;;28.40;46.87;99156.97;5072204;28;20249;-71
2022/08/06 00:48:57;;;;;;;6.60;5.00;;;;;;;28.37;46.55;99160.31;5071977;28;20200;-71
2022/08/06 00:51:25;;;;;;;5.00;4.70;;;;;;;28.33;46.44;99157.44;5071538;28;20195;-71
2022/08/06 00:53:52;;;;;;;5.70;5.20;;;;;;;28.33;46.70;99157.44;5072121;28;20196;-71
2022/08/06 00:56:19;;;;;;;6.73;4.70;;;;;;;28.36;46.68;99155.97;5072879;28;20199;-71
2022/08/06 00:58:46;;;;;;;5.57;4.80;;;;;;;28.31;46.39;99158.88;5071698;28;20228;-71
2022/08/06 01:01:13;;;;;;;5.07;4.77;;;;;;;28.21;46.01;99153.72;5071831;28;20733;-72
2022/08/06 01:03:41;;;;;;;5.53;5.10;;;;;;;28.15;46.88;99155.81;5072053;28;20192;-72
2022/08/06 01:06:08;;;;;;;5.17;4.77;;;;;;;28.21;47.33;99159.16;5071930;28;20196;-72
2022/08/06 01:08:34;;;;;;;8.73;5.10;;;;;;;28.26;46.84;99161.78;5071910;28;20265;-72
2022/08/06 01:11:01;;;;;;;4.73;4.47;;;;;;;28.09;46.85;99168.00;5072172;28;20613;-73
2022/08/06 01:13:28;;;;;;;5.03;4.60;;;;;;;28.01;46.89;99165.25;5078256;28;20195;-72
2022/08/06 01:16:03;;;;;;;5.20;4.50;;;;;;;28.00;46.93;99163.63;5078960;28;20195;-71
2022/08/06 01:18:36;;;;;;;4.77;4.47;;;;;;;27.96;46.38;99158.00;5077939;28;20257;-72
2022/08/06 01:21:26;;;;;;;4.80;4.50;;;;;;;27.88;47.37;99161.50;5078896;28;20187;-71
2022/08/06 01:24:26;;;;;;;5.77;4.50;;;;;;;27.82;47.29;99151.88;5078430;28;20301;-71
2022/08/06 01:27:01;;;;;;;6.37;4.80;;;;;;;27.83;47.44;99152.66;5078650;28;20188;-71
2022/08/06 01:29:34;;;;;;;5.17;4.73;;;;;;;27.81;47.01;99152.16;5078295;28;20191;-72
2022/08/06 01:32:07;;;;;;;5.33;4.40;;;;;;;27.83;47.54;99158.13;5078539;28;20188;-72
2022/08/06 01:34:37;;;;;;;4.67;4.47;;;;;;;27.85;47.62;99155.91;5078325;28;20192;-72
2022/08/06 01:37:18;;;;;;;5.00;4.70;;;;;;;27.86;46.81;99160.22;5078161;28;20187;-71
2022/08/06 01:39:47;;;;;;;4.70;4.30;;;;;;;27.80;47.10;99154.06;5077929;28;20779;-71
2022/08/06 01:42:16;;;;;;;8.87;4.90;;;;;;;27.72;46.91;99152.13;5078035;28;20253;-71
2022/08/06 01:44:47;;;;;;;4.90;4.60;;;;;;;27.67;47.25;99156.91;5078442;28;20265;-71
2022/08/06 01:47:16;;;;;;;4.77;4.47;;;;;;;27.64;47.75;99154.84;5078131;28;20191;-71
2022/08/06 01:49:47;;;;;;;5.13;4.73;;;;;;;27.67;47.13;99160.44;5078723;28;20196;-71
2022/08/06 01:52:14;;;;;;;6.53;5.03;;;;;;;27.58;47.23;99161.53;5078324;28;20241;-70
2022/08/06 01:54:45;;;;;;;6.07;5.03;;;;;;;27.43;48.49;99153.75;5077875;28;20192;-70
2022/08/06 01:57:14;;;;;;;5.60;5.10;;;;;;;27.37;48.53;99160.47;5077956;28;20180;-70
2022/08/06 01:59:56;;;;;;;7.63;5.63;;;;;;;27.35;48.66;99162.69;5078353;28;20239;-70
2022/08/06 02:02:27;;;;;;;6.30;5.80;;;;;;;27.33;48.64;99154.03;5078029;28;20640;-70
2022/08/06 02:04:58;;;;;;;7.70;5.63;;;;;;;27.20;49.08;99147.53;5077987;28;20638;-70
2022/08/06 02:07:31;;;;;;;5.67;5.23;;;;;;;27.07;49.45;99162.03;5078910;28;20237;-71
2022/08/06 02:10:00;;;;;;;5.73;5.33;;;;;;;26.97;50.64;99153.31;5078473;28;20196;-71
2022/08/06 02:12:28;;;;;;;5.40;5.00;;;;;;;27.02;50.37;99156.72;5077892;28;20694;-71
2022/08/06 02:14:59;;;;;;;5.70;5.23;;;;;;;27.09;50.39;99153.53;5078225;28;20230;-71
2022/08/06 02:17:29;;;;;;;5.53;5.17;;;;;;;27.05;50.90;99158.00;5077738;28;20640;-71
2022/08/06 02:20:00;;;;;;;5.63;5.33;;;;;;;27.02;51.00;99153.97;5078104;28;20224;-72
2022/08/06 02:22:29;;;;;;;5.73;5.10;;;;;;;27.11;50.58;99146.66;5077341;28;20188;-71
2022/08/06 02:25:01;;;;;;;6.27;5.80;;;;;;;27.18;50.44;99157.94;5073902;28;20196;-72
2022/08/06 02:27:30;;;;;;;5.60;5.30;;;;;;;27.26;50.57;99146.28;5075129;28;20183;-72
2022/08/06 02:30:00;;;;;;;5.77;5.37;;;;;;;27.33;50.12;99152.13;5074618;28;20257;-72
2022/08/06 02:32:27;;;;;;;7.17;5.53;;;;;;;27.29;50.31;99148.41;5075518;28;20211;-71
2022/08/06 02:34:54;;;;;;;6.30;5.83;;;;;;;27.30;50.63;99149.19;5075143;28;20191;-72
2022/08/06 02:37:25;;;;;;;6.27;5.53;;;;;;;27.24;51.10;99145.00;5074635;28;20192;-72
2022/08/06 02:39:56;;;;;;;6.77;5.83;;;;;;;27.21;51.20;99145.63;5073887;28;20713;-73
2022/08/06 02:42:28;;;;;;;5.73;5.23;;;;;;;27.25;50.38;99146.59;5074867;28;20607;-70
2022/08/06 02:45:03;;;;;;;11.03;5.73;;;;;;;27.32;51.19;99146.97;5074352;28;20180;-70
2022/08/06 02:47:36;;;;;;;7.37;5.60;;;;;;;27.34;50.99;99150.19;5074425;28;20187;-71
2022/08/06 02:50:06;;;;;;;6.30;5.70;;;;;;;27.34;50.55;99145.53;5073859;28;20192;-70
2022/08/06 02:52:46;;;;;;;5.80;5.30;;;;;;;27.34;50.69;99147.44;5074075;28;20188;-69
2022/08/06 02:55:15;;;;;;;5.80;5.30;;;;;;;27.38;50.26;99142.97;5074063;28;20184;-70
2022/08/06 02:57:49;;;;;;;7.00;6.13;;;;;;;27.36;49.96;99143.28;5073975;28;20219;-70
2022/08/06 03:00:19;;;;;;;6.63;6.00;;;;;;;27.37;49.17;99138.66;5073903;28;20210;-71
2022/08/06 03:02:48;;;;;;;5.90;5.60;;;;;;;27.37;49.88;99138.66;5073755;28;20196;-70
2022/08/06 03:05:18;;;;;;;5.93;5.60;;;;;;;27.37;49.88;99141.38;5073614;28;20672;-71
2022/08/06 03:07:47;;;;;;;5.23;4.90;;;;;;;27.40;49.43;99143.47;5074024;28;20196;-71
2022/08/06 03:10:15;;;;;;;5.63;5.13;;;;;;;27.36;49.71;99150.69;5073665;28;20765;-71
2022/08/06 03:12:43;;;;;;;6.57;5.53;;;;;;;27.39;49.21;99148.13;5073786;28;20200;-71
2022/08/06 03:15:11;;;;;;;6.83;5.87;;;;;;;27.40;49.20;99146.22;5073469;28;20200;-70
2022/08/06 03:17:41;;;;;;;6.50;6.10;;;;;;;27.33;49.05;99151.31;5073778;28;20624;-70
2022/08/06 03:20:09;;;;;;;7.53;6.00;;;;;;;27.22;49.46;99149.94;5073658;28;20216;-69
2022/08/06 03:22:38;;;;;;;6.17;5.67;;;;;;;27.14;50.16;99158.84;5073589;28;20200;-70
2022/08/06 03:25:06;;;;;;;8.07;6.17;;;;;;;27.15;49.79;99155.03;5073413;28;20194;-69
2022/08/06 03:27:34;;;;;;;5.60;5.30;;;;;;;27.16;50.36;99157.44;5073459;28;20200;-69
2022/08/06 03:30:02;;;;;;;5.33;5.03;;;;;;;27.18;50.09;99157.94;5073467;28;20191;-69
2022/08/06 03:32:29;;;;;;;6.40;5.80;;;;;;;27.24;50.08;99166.81;5073134;28;20195;-71
2022/08/06 03:34:58;;;;;;;6.57;5.93;;;;;;;27.25;49.82;99162.97;5073127;28;20195;-70
2022/08/06 03:37:25;;;;;;;5.70;5.30;;;;;;;27.30;50.06;99160.09;5073031;28;20729;-71
2022/08/06 03:39:54;;;;;;;8.90;4.90;;;;;;;27.27;50.10;99158.81;5073506;28;20219;-70
2022/08/06 03:42:21;;;;;;;6.83;5.70;;;;;;;27.29;49.65;99162.06;5073166;28;20192;-72
2022/08/06 03:44:48;;;;;;;5.00;4.60;;;;;;;27.25;50.06;99157.53;5073186;28;20245;-70
2022/08/06 03:47:20;;;;;;;6.43;5.73;;;;;;;27.37;50.01;99166.75;5073360;28;20195;-71
2022/08/06 03:49:53;;;;;;;5.10;4.80;;;;;;;27.36;49.81;99159.66;5073088;28;20648;-71
2022/08/06 03:52:29;;;;;;;5.40;5.00;;;;;;;27.31;50.07;99161.75;5073140;28;20195;-70
2022/08/06 03:55:05;;;;;;;5.97;5.57;;;;;;;27.36;49.73;99162.38;5072586;28;20242;-70
2022/08/06 03:57:36;;;;;;;9.47;5.50;;;;;;;27.37;49.30;99158.56;5072190;28;20586;-71
2022/08/06 04:00:05;;;;;;;7.47;5.63;;;;;;;27.27;49.66;99163.47;5072586;28;20216;-72
2022/08/06 04:02:36;;;;;;;5.73;5.20;;;;;;;27.24;49.94;99162.16;5072935;28;20252;-70
2022/08/06 04:05:03;;;;;;;5.67;5.20;;;;;;;27.45;49.56;99157.81;5072904;28;20245;-70
2022/08/06 04:07:32;;;;;;;6.07;5.63;;;;;;;27.79;48.75;99157.94;5072418;28;20200;-71
2022/08/06 04:10:00;;;;;;;5.90;5.60;;;;;;;28.25;47.24;99146.47;5072744;28;20200;-71
2022/08/06 04:12:29;;;;;;;7.17;6.03;;;;;;;28.67;45.84;99151.22;5072992;28;20269;-71
2022/08/06 04:14:56;;;;;;;8.47;5.50;;;;;;;29.00;45.13;99155.06;5072689;28;20196;-70
2022/08/06 04:17:24;;;;;;;5.60;5.20;;;;;;;29.38;43.79;99161.41;5072272;28;20196;-69
2022/08/06 04:19:52;;;;;;;4.93;4.40;;;;;;;29.84;42.25;99172.38;5072194;28;20273;-71
2022/08/06 04:22:20;;;;;;;5.13;4.70;;;;;;;30.23;40.63;99163.81;5071948;28;20188;-70
2022/08/06 04:24:48;;;;;;;6.83;4.90;;;;;;;30.74;39.92;99177.16;5071968;28;20252;-71
2022/08/06 04:27:17;;;;;;;5.17;4.87;;;;;;;31.07;38.82;99175.22;5072353;28;20188;-70
2022/08/06 04:29:45;;;;;;;5.47;4.97;;;;;;;31.36;38.32;99166.88;5072028;28;20195;-70
2022/08/06 04:32:15;;;;;;;6.00;5.20;;;;;;;31.64;37.78;99178.06;5071541;28;20249;-68
2022/08/06 04:34:44;;;;;;;5.33;5.03;;;;;;;31.78;37.25;99179.34;5071517;28;20239;-69
2022/08/06 04:37:12;;;;;;;5.67;5.03;;;;;;;32.02;36.95;99176.59;5071967;28;20188;-68
2022/08/06 04:39:39;;;;;;;4.70;4.40;;;;;;;31.84;36.76;99166.97;5071473;28;20227;-69
2022/08/06 04:42:08;;;;;;;4.57;4.27;;;;;;;31.38;37.66;99170.09;5071771;28;20648;-69
2022/08/06 04:44:37;;;;;;;4.63;4.33;;;;;;;31.03;38.12;99171.56;5071102;28;20188;-70
2022/08/06 04:47:05;;;;;;;4.50;4.20;;;;;;;30.63;39.57;99170.47;5071019;28;20191;-70
2022/08/06 04:49:32;;;;;;;7.43;4.77;;;;;;;30.41;40.25;99168.03;5071542;28;20196;-70
2022/08/06 04:51:59;;;;;;;4.73;4.27;;;;;;;30.05;40.40;99169.69;5071742;28;20191;-71
2022/08/06 04:54:26;;;;;;;13.03;5.30;;;;;;;29.83;41.23;99173.50;5071997;28;20241;-73
2022/08/06 04:56:52;;;;;;;5.93;5.20;;;;;;;29.20;42.81;99170.81;5071927;28;20278;-73
2022/08/06 04:59:20;;;;;;;5.10;4.77;;;;;;;28.74;44.93;99167.91;5071473;28;20696;-73
2022/08/06 05:01:47;;;;;;;5.30;5.00;;;;;;;28.63;44.91;99172.13;5071759;28;20191;-73
2022/08/06 05:04:14;;;;;;;4.90;4.57;;;;;;;28.69;45.46;99173.56;5071379;28;20286;-73
2022/08/06 05:06:54;;;;;;;8.53;5.20;;;;;;;29.01;44.67;99173.09;5071889;28;20272;-72
2022/08/06 05:09:24;;;;;;;8.07;5.53;;;;;;;29.36;43.66;99184.78;5071513;28;20192;-73
2022/08/06 05:11:56;;;;;;;5.80;5.40;;;;;;;29.14;43.99;99183.03;5071680;28;20200;-73
2022/08/06 05:14:28;;;;;;;5.37;4.83;;;;;;;28.99;44.70;99186.28;5071418;28;20264;-72
2022/08/06 05:16:57;;;;;;;6.13;4.70;;;;;;;29.20;44.83;99193.50;5070908;28;20245;-72
2022/08/06 05:19:29;;;;;;;6.23;4.83;;;;;;;29.31;44.54;99193.94;5071813;28;20224;-73
2022/08/06 05:21:58;;;;;;;5.80;5.10;;;;;;;29.45;44.13;99186.34;5071132;28;20184;-72
2022/08/06 05:24:25;;;;;;;6.03;4.90;;;;;;;29.87;43.65;99190.06;5071693;28;20199;-73
2022/08/06 05:26:52;;;;;;;20.47;5.70;;;;;;;30.27;42.26;99183.94;5071240;28;20660;-73
2022/08/06 05:29:20;;;;;;;4.80;4.40;;;;;;;30.85;41.48;99189.31;5070942;28;20631;-72
2022/08/06 05:31:48;;;;;;;4.67;4.13;;;;;;;31.41;39.94;99190.59;5070867;28;20196;-72
2022/08/06 05:34:15;;;;;;;4.90;4.50;;;;;;;32.02;38.75;99187.59;5070017;28;20656;-72
2022/08/06 05:36:42;;;;;;;4.37;3.97;;;;;;;32.85;36.90;99188.66;5071043;28;20231;-71
2022/08/06 05:39:09;;;;;;;4.00;3.80;;;;;;;33.51;35.17;99190.88;5071018;28;20192;-71
2022/08/06 05:41:35;;;;;;;6.30;3.90;;;;;;;34.06;33.64;99179.69;5071362;28;20238;-72
2022/08/06 05:44:03;;;;;;;3.92;3.72;;;;;;;34.63;32.21;99194.44;5071137;28;20245;-73
2022/08/06 05:46:35;;;;;;;4.50;3.30;;;;;;;34.97;31.40;99199.13;5070811;28;20253;-71
2022/08/06 05:49:08;;;;;;;4.30;3.33;;;;;;;35.42;30.53;99209.50;5070902;28;20187;-72
2022/08/06 05:51:41;;;;;;;3.90;3.03;;;;;;;35.71;30.49;99203.31;5070626;28;20567;-73
2022/08/06 05:54:16;;;;;;;3.08;2.88;;;;;;;36.10;29.64;99202.03;5071445;28;20283;-72
2022/08/06 05:56:47;;;;;;;3.75;3.30;;;;;;;36.25;28.85;99201.13;5071094;28;20184;-71
2022/08/06 05:59:21;;;;;;;4.15;3.75;;;;;;;36.28;28.72;99203.13;5074514;28;20232;-72
2022/08/06 06:01:50;;;;;;;7.60;4.30;;;;;;;36.24;29.29;99202.28;5071850;28;20196;-73
2022/08/06 06:04:19;;;;;;;4.13;3.72;;;;;;;36.20;29.11;99206.91;5073902;28;20617;-72
2022/08/06 06:06:47;;;;;;;5.35;4.25;;;;;;;36.01;29.19;99199.53;5074830;28;20196;-71
2022/08/06 06:09:14;;;;;;;8.35;4.22;;;;;;;36.51;29.25;99201.09;5074746;28;20196;-72
2022/08/06 06:11:42;;;;;;;3.90;3.63;;;;;;;36.81;28.43;99199.16;5074285;28;20252;-71
2022/08/06 06:14:28;;;;;;;3.55;3.35;;;;;;;36.87;28.07;99204.00;5074541;28;20192;-74
2022/08/06 06:17:05;;;;;;;4.22;4.03;;;;;;;37.28;27.48;99195.78;5054364;28;20189;-71
2022/08/06 06:19:42;;;;;;;8.52;3.92;;;;;;;37.24;27.96;99196.53;5061008;28;20204;-70
2022/08/06 06:22:18;;;;;;;7.75;3.60;;;;;;;37.06;28.41;99197.47;5074720;28;20188;-71
2022/08/06 06:24:53;;;;;;;8.27;4.28;;;;;;;37.12;28.27;99191.22;5074476;28;20643;-72
2022/08/06 06:27:27;;;;;;;4.28;3.92;;;;;;;36.76;28.68;99188.41;5073694;28;20188;-71
2022/08/06 06:30:00;;;;;;;4.75;4.32;;;;;;;36.59;28.97;99178.66;5074855;28;20241;-70
2022/08/06 06:32:39;;;;;;;4.47;3.80;;;;;;;36.64;29.64;99188.63;5074445;28;20184;-69
2022/08/06 06:35:18;;;;;;;5.28;4.10;;;;;;;36.71;29.64;99183.22;5074541;28;20184;-70
2022/08/06 06:37:54;;;;;;;4.65;4.25;;;;;;;36.67;29.26;99187.88;5074876;28;20183;-70
2022/08/06 06:40:33;;;;;;;16.95;4.88;;;;;;;36.64;30.04;99174.78;5074708;28;20215;-68
2022/08/06 06:43:06;;;;;;;7.32;4.07;;;;;;;36.78;29.71;99173.03;5074813;28;20181;-69
2022/08/06 06:45:42;;;;;;;6.28;4.95;;;;;;;37.03;29.47;99178.88;5074339;28;20184;-69
2022/08/06 06:48:14;;;;;;;4.22;3.80;;;;;;;36.83;29.20;99175.44;5074779;28;20183;-69
2022/08/06 06:50:46;;;;;;;4.35;3.97;;;;;;;36.94;29.19;99170.03;5074114;28;20203;-68
2022/08/06 06:53:15;;;;;;;7.05;4.30;;;;;;;37.15;28.97;99165.56;5074595;28;20222;-69
2022/08/06 06:55:45;;;;;;;5.97;4.57;;;;;;;37.44;29.26;99163.91;5074327;28;20195;-68
2022/08/06 06:58:16;;;;;;;4.35;3.92;;;;;;;37.43;28.70;99165.06;5073685;28;20238;-68
2022/08/06 07:00:43;;;;;;;7.28;4.15;;;;;;;37.60;28.91;99158.91;5074002;28;20683;-67
2022/08/06 07:03:12;;;;;;;4.55;3.95;;;;;;;37.72;28.32;99166.94;5074183;28;20196;-69
2022/08/06 07:05:43;;;;;;;4.75;4.05;;;;;;;37.64;28.23;99165.28;5074201;28;20196;-70
2022/08/06 07:08:12;;;;;;;5.22;4.82;;;;;;;37.82;28.40;99154.34;5074235;28;20185;-70
2022/08/06 07:10:40;;;;;;;3.90;3.55;;;;;;;38.21;27.66;99156.22;5073304;28;20192;-69
2022/08/06 07:13:10;;;;;;;4.32;3.92;;;;;;;38.49;27.47;99162.00;5073593;28;20192;-69
2022/08/06 07:15:38;;;;;;;5.40;4.22;;;;;;;38.69;27.19;99159.69;5073870;28;20579;-68
2022/08/06 07:18:06;;;;;;;6.22;4.55;;;;;;;38.43;27.39;99151.63;5074156;28;20196;-69
2022/08/06 07:20:34;;;;;;;4.50;4.10;;;;;;;38.87;26.99;99157.81;5073373;28;20224;-69
2022/08/06 07:23:03;;;;;;;4.40;4.00;;;;;;;39.02;26.82;99157.47;5074212;28;20633;-69
2022/08/06 07:25:34;;;;;;;4.63;4.43;;;;;;;38.68;27.37;99145.03;5073400;28;20200;-69
2022/08/06 07:28:01;;;;;;;9.52;4.38;;;;;;;38.38;27.96;99152.00;5073333;28;20195;-69
2022/08/06 07:30:29;;;;;;;6.97;4.50;;;;;;;37.99;28.41;99154.47;5073578;28;20266;-69
2022/08/06 07:32:56;;;;;;;4.85;4.50;;;;;;;37.86;28.40;99150.44;5073765;28;20196;-69
2022/08/06 07:35:23;;;;;;;4.88;4.45;;;;;;;37.66;28.17;99146.28;5073196;28;20241;-69
2022/08/06 07:37:54;;;;;;;5.90;4.85;;;;;;;37.55;28.46;99150.91;5073447;28;20264;-70
2022/08/06 07:40:25;;;;;;;4.22;3.92;;;;;;;37.62;28.56;99134.38;5074058;28;20234;-69
2022/08/06 07:42:59;;;;;;;9.90;5.03;;;;;;;37.59;28.74;99140.69;5073669;28;20279;-69
2022/08/06 07:45:30;;;;;;;5.28;4.90;;;;;;;37.66;28.75;99140.75;5072871;28;20180;-68
2022/08/06 07:47:58;;;;;;;4.85;4.47;;;;;;;37.83;28.53;99137.31;5074221;28;20196;-70
2022/08/06 07:50:27;;;;;;;5.28;4.97;;;;;;;37.75;28.66;99126.56;5072835;28;20663;-69
2022/08/06 07:52:56;;;;;;;7.00;4.30;;;;;;;37.87;28.49;99129.81;5073331;28;20194;-69
2022/08/06 07:55:25;;;;;;;5.20;4.25;;;;;;;37.65;28.53;99133.63;5072558;28;20245;-69
2022/08/06 07:57:52;;;;;;;4.68;4.18;;;;;;;37.64;29.27;99123.69;5072558;28;20611;-69
2022/08/06 08:00:20;;;;;;;4.80;4.30;;;;;;;37.90;28.32;99128.25;5072799;28;20281;-69
2022/08/06 08:08:13;;;;;;;4.25;4.05;;;;;;;37.77;28.24;99132.50;5073191;28;20551;-69
2022/08/06 08:10:41;;;;;;;4.97;4.53;;;;;;;37.31;29.18;99128.53;5072435;28;20192;-69
2022/08/06 08:13:08;;;;;;;4.40;4.10;;;;;;;37.40;27.90;99126.22;5072487;28;20249;-68
2022/08/06 08:15:37;;;;;;;4.78;4.38;;;;;;;37.22;29.16;99126.84;5072649;28;20257;-69
2022/08/06 08:18:04;;;;;;;4.57;4.28;;;;;;;37.30;28.50;99127.72;5072357;28;20249;-69
2022/08/06 08:20:32;;;;;;;4.90;4.60;;;;;;;37.38;28.30;99118.28;5072064;28;20224;-68
2022/08/06 08:22:59;;;;;;;4.93;4.63;;;;;;;37.15;29.25;99126.00;5071935;28;20200;-68
2022/08/06 08:25:26;;;;;;;4.43;4.00;;;;;;;37.21;28.79;99116.16;5072206;28;20196;-68
2022/08/06 08:27:53;;;;;;;3.85;3.60;;;;;;;37.51;28.21;99116.03;5072275;28;20231;-68
2022/08/06 08:30:19;;;;;;;8.32;5.07;;;;;;;37.65;27.94;99114.22;5072404;28;20203;-69
2022/08/06 08:32:47;;;;;;;5.10;4.38;;;;;;;37.95;27.79;99114.00;5072416;28;20199;-70
2022/08/06 08:35:15;;;;;;;4.35;4.10;;;;;;;38.22;27.45;99112.63;5072029;28;20246;-69
2022/08/06 08:37:42;;;;;;;5.88;4.10;;;;;;;38.38;27.09;99113.13;5072398;28;20324;-69
2022/08/06 08:40:10;;;;;;;4.60;4.07;;;;;;;38.60;27.14;99104.53;5071831;28;20276;-69
2022/08/06 08:42:43;;;;;;;4.45;4.15;;;;;;;38.81;26.60;99107.38;5072381;28;20283;-69
2022/08/06 08:45:11;;;;;;;3.40;3.20;;;;;;;38.69;25.63;99110.50;5072027;28;20622;-70
2022/08/06 08:47:43;;;;;;;3.42;3.33;;;;;;;38.52;25.99;99105.69;5072809;28;20195;-70
2022/08/06 08:50:12;;;;;;;4.00;3.80;;;;;;;38.54;26.49;99096.97;5072410;28;20329;-69
2022/08/06 08:52:44;;;;;;;4.90;3.78;;;;;;;38.66;26.33;99097.41;5072511;28;20626;-69
2022/08/06 08:55:15;;;;;;;3.53;3.40;;;;;;;38.89;25.65;99099.84;5071835;28;20238;-68
2022/08/06 08:57:43;;;;;;;4.10;3.75;;;;;;;39.06;25.52;99102.69;5072494;28;20235;-69
2022/08/06 09:00:10;;;;;;;3.78;3.45;;;;;;;39.05;25.69;99092.78;5072107;28;20571;-69
2022/08/06 09:02:38;;;;;;;3.72;3.50;;;;;;;39.02;24.70;99085.22;5072703;28;20258;-69
2022/08/06 09:05:06;;;;;;;3.55;3.40;;;;;;;38.74;24.51;99074.00;5072396;28;20242;-69
2022/08/06 09:07:34;;;;;;;3.72;3.60;;;;;;;38.03;26.19;99076.81;5072908;28;20253;-69
2022/08/06 09:10:01;;;;;;;6.45;5.95;;;;;;;38.02;26.37;99080.78;5072326;28;20265;-69
2022/08/06 09:12:28;;;;;;;7.20;4.13;;;;;;;38.33;26.31;99078.19;5072021;28;20676;-69
2022/08/06 09:14:55;;;;;;;4.25;3.90;;;;;;;38.62;25.43;99081.91;5071933;28;20249;-69
2022/08/06 09:17:23;;;;;;;3.72;3.50;;;;;;;38.70;25.31;99073.19;5071703;28;20245;-69
2022/08/06 09:19:50;;;;;;;6.30;3.90;;;;;;;38.61;25.35;99081.13;5071551;28;20660;-69
2022/08/06 09:22:17;;;;;;;4.13;3.60;;;;;;;38.82;25.05;99070.06;5071563;28;20216;-69
2022/08/06 09:24:45;;;;;;;3.88;3.60;;;;;;;39.10;24.59;99072.13;5072176;28;20204;-69
2022/08/06 09:27:13;;;;;;;3.80;3.55;;;;;;;39.29;24.56;99067.00;5072753;28;20252;-69
2022/08/06 09:29:50;;;;;;;4.07;3.50;;;;;;;39.29;24.53;99069.78;5072036;28;20202;-69
2022/08/06 09:32:38;;;;;;;3.70;3.53;;;;;;;39.50;24.40;99071.78;5072708;28;20609;-69
2022/08/06 09:35:17;;;;;;;4.05;3.83;;;;;;;39.45;24.23;99067.44;5075563;28;20620;-70
2022/08/06 09:37:44;;;;;;;3.70;3.20;;;;;;;39.35;24.19;99062.66;5075623;28;20217;-70
2022/08/06 09:40:18;;;;;;;3.28;3.17;;;;;;;39.31;24.14;99072.94;5076075;28;20196;-70
2022/08/06 09:42:48;;;;;;;3.45;3.33;;;;;;;39.22;23.79;99061.44;5075561;28;20651;-69
2022/08/06 09:45:17;;;;;;;3.95;3.63;;;;;;;39.21;23.69;99076.53;5076134;28;20192;-69
2022/08/06 09:47:44;;;;;;;3.97;3.30;;;;;;;39.31;23.79;99059.03;5075698;28;20575;-69
2022/08/06 09:50:11;;;;;;;3.03;2.92;;;;;;;39.53;24.11;99057.91;5075209;28;20192;-70
2022/08/06 09:52:38;;;;;;;3.67;3.40;;;;;;;39.22;24.25;99058.66;5076165;28;20196;-70
2022/08/06 09:55:06;;;;;;;3.65;3.35;;;;;;;38.45;24.91;99052.84;5076042;28;20188;-70
2022/08/06 09:57:46;;;;;;;3.97;3.78;;;;;;;38.64;25.10;99063.69;5075363;28;20227;-69
2022/08/06 10:00:26;;;;;;;3.60;3.40;;;;;;;38.36;24.58;99063.53;5075553;28;20187;-70
2022/08/06 10:02:56;;;;;;;5.43;3.40;;;;;;;38.14;25.46;99056.31;5074911;28;20192;-70
2022/08/06 10:05:25;;;;;;;3.92;3.70;;;;;;;38.41;25.04;99054.81;5074825;28;20246;-70
2022/08/06 10:08:04;;;;;;;4.20;3.80;;;;;;;38.28;24.82;99056.38;5075335;28;20187;-68
2022/08/06 10:10:42;;;;;;;5.10;3.78;;;;;;;38.63;24.88;99062.09;5075634;28;20263;-68
2022/08/06 10:13:18;;;;;;;3.78;3.58;;;;;;;38.66;24.66;99054.97;5076019;28;20188;-68
2022/08/06 10:15:46;;;;;;;4.20;3.88;;;;;;;38.69;24.45;99043.84;5074830;28;20241;-69
2022/08/06 10:18:35;;;;;;;4.40;3.35;;;;;;;38.48;25.15;99046.56;5075108;28;20188;-69
2022/08/06 10:21:04;;;;;;;4.65;3.85;;;;;;;38.59;25.22;99039.06;5074193;28;20687;-69
2022/08/06 10:23:33;;;;;;;3.30;3.20;;;;;;;38.65;25.45;99037.50;5074602;28;20192;-69
2022/08/06 10:26:03;;;;;;;4.05;3.75;;;;;;;38.63;25.42;99033.50;5074602;28;20694;-69
2022/08/06 10:28:34;;;;;;;5.45;3.42;;;;;;;38.79;24.73;99026.44;5075758;28;20195;-69
2022/08/06 10:31:03;;;;;;;4.80;3.42;;;;;;;39.12;25.05;99033.63;5074923;28;20188;-69
2022/08/06 10:33:33;;;;;;;3.65;3.40;;;;;;;39.21;24.46;99032.06;5074781;28;20200;-69
2022/08/06 10:36:05;;;;;;;7.25;3.50;;;;;;;39.24;23.97;99028.47;5074306;28;20199;-69
2022/08/06 10:38:35;;;;;;;3.92;3.60;;;;;;;38.94;24.00;99032.84;5074519;28;20189;-69
2022/08/06 10:41:07;;;;;;;3.78;3.58;;;;;;;39.14;24.67;99018.16;5074331;28;20207;-69
2022/08/06 10:43:36;;;;;;;6.35;4.85;;;;;;;39.40;24.46;99020.53;5073988;28;20246;-69
2022/08/06 10:46:05;;;;;;;9.27;4.10;;;;;;;39.34;24.66;99019.38;5073972;28;20192;-69
2022/08/06 10:48:33;;;;;;;6.50;4.18;;;;;;;39.01;25.25;99011.38;5074622;28;20192;-69
2022/08/06 10:51:00;;;;;;;3.92;3.63;;;;;;;38.90;24.43;99007.00;5074929;28;20196;-69
2022/08/06 10:53:27;;;;;;;4.25;3.92;;;;;;;39.12;24.64;99003.88;5074038;28;20192;-69
2022/08/06 10:55:56;;;;;;;5.70;4.50;;;;;;;39.25;24.58;99007.81;5074328;28;20273;-69
2022/08/06 10:58:24;;;;;;;4.28;3.97;;;;;;;39.15;24.71;99003.03;5073917;28;20231;-69
2022/08/06 11:00:52;;;;;;;4.32;3.92;;;;;;;39.29;24.50;99010.59;5073884;28;20223;-69
2022/08/06 11:03:25;;;;;;;3.78;3.50;;;;;;;39.29;24.34;99011.41;5074393;28;20192;-70
2022/08/06 11:06:00;;;;;;;5.30;3.85;;;;;;;38.71;25.30;98999.81;5073943;28;20180;-69
2022/08/06 11:08:58;;;;;;;5.30;3.92;;;;;;;38.51;24.77;99003.34;5074832;28;20188;-69
2022/08/06 11:11:38;;;;;;;4.18;3.97;;;;;;;38.66;24.43;98994.63;5061629;28;20745;-69
2022/08/06 11:14:08;;;;;;;4.10;3.65;;;;;;;38.59;25.09;98993.84;5074991;28;20191;-69
2022/08/06 11:16:38;;;;;;;4.45;3.83;;;;;;;38.66;24.88;98983.53;5073703;28;20222;-69
2022/08/06 11:19:06;;;;;;;5.63;4.07;;;;;;;38.59;25.12;98971.63;5073631;28;20250;-69
2022/08/06 11:21:41;;;;;;;6.30;4.30;;;;;;;37.75;26.19;98980.38;5073402;28;20277;-69
2022/08/06 11:24:07;;;;;;;3.70;3.60;;;;;;;37.82;26.13;98982.38;5074808;28;20179;-69
2022/08/06 11:26:36;;;;;;;4.95;4.15;;;;;;;37.83;26.02;98972.88;5073754;28;20612;-69
2022/08/06 11:29:05;;;;;;;4.88;4.57;;;;;;;38.03;26.02;98966.66;5073580;28;20227;-69
2022/08/06 11:31:34;;;;;;;4.30;4.00;;;;;;;37.96;26.16;98974.91;5073383;28;20196;-69
2022/08/06 11:34:06;;;;;;;4.35;4.05;;;;;;;37.77;26.15;98974.44;5073388;28;20683;-69
2022/08/06 11:36:54;;;;;;;4.30;4.10;;;;;;;37.82;26.14;98980.41;5073974;28;20188;-69
2022/08/06 11:39:23;;;;;;;4.10;3.80;;;;;;;37.76;26.00;98972.84;5073365;28;20711;-68
2022/08/06 11:41:55;;;;;;;4.40;4.20;;;;;;;37.79;26.67;98972.84;5073431;28;20310;-69
2022/08/06 11:44:23;;;;;;;14.75;5.63;;;;;;;37.82;26.95;98971.28;5073522;28;20199;-69
2022/08/06 11:47:05;;;;;;;4.80;4.35;;;;;;;37.75;26.26;98974.81;5073062;28;20257;-70
2022/08/06 11:49:38;;;;;;;4.53;4.32;;;;;;;37.73;26.38;98974.41;5072978;28;20184;-69
2022/08/06 11:52:06;;;;;;;6.15;3.92;;;;;;;37.73;26.48;98974.41;5073306;28;20257;-69
2022/08/06 11:54:34;;;;;;;4.65;4.25;;;;;;;37.70;27.11;98971.59;5072373;28;20202;-69